createdAt,value
2022-10-27T00:02:09.524Z,85.10
2022-10-27T00:04:20.224Z,84.87
2022-10-27T00:06:30.533Z,84.94
2022-10-27T00:08:41.088Z,85.12
2022-10-27T00:11:00.695Z,85.24
2022-10-27T00:13:12.607Z,85.28
2022-10-27T00:15:22.739Z,85.40
2022-10-27T00:17:36.693Z,85.21
2022-10-27T00:19:46.898Z,85.18
2022-10-27T00:21:57.117Z,85.12
2022-10-27T00:24:07.466Z,85.16
2022-10-27T00:26:20.654Z,85.14
2022-10-27T00:28:33.405Z,85.09
2022-10-27T00:30:43.273Z,85.20
2022-10-27T00:32:53.880Z,85.34
2022-10-27T00:35:04.253Z,85.20
2022-10-27T00:37:15.038Z,85.18
2022-10-27T00:39:25.695Z,85.04
2022-10-27T00:41:37.892Z,85.13
2022-10-27T00:43:47.819Z,84.91
2022-10-27T00:45:59.873Z,84.92
2022-10-27T00:48:10.566Z,85.01
2022-10-27T00:50:22.913Z,84.90
2022-10-27T00:52:37.531Z,85.05
2022-10-27T00:54:47.667Z,84.95
2022-10-27T00:56:59.890Z,84.79
2022-10-27T00:59:10.923Z,84.90
2022-10-27T01:01:21.279Z,84.79
2022-10-27T01:03:32.417Z,85.03
2022-10-27T01:05:45.337Z,84.92
2022-10-27T01:07:57.510Z,84.96
2022-10-27T01:10:08.510Z,84.79
2022-10-27T01:12:18.841Z,84.78
2022-10-27T01:14:29.777Z,84.75
2022-10-27T01:16:51.018Z,84.71
2022-10-27T01:19:10.661Z,84.73
2022-10-27T01:21:48.522Z,84.91
2022-10-27T01:24:21.505Z,85.00
2022-10-27T01:26:52.513Z,84.85
2022-10-27T01:29:41.052Z,84.98
2022-10-27T01:31:59.105Z,85.11
2022-10-27T01:34:14.556Z,85.19
2022-10-27T01:36:33.421Z,85.25
2022-10-27T01:38:48.422Z,85.48
2022-10-27T01:41:03.899Z,85.46
2022-10-27T01:43:17.618Z,85.34
2022-10-27T01:45:30.946Z,85.34
2022-10-27T01:47:41.370Z,85.48
2022-10-27T01:49:54.313Z,85.52
2022-10-27T01:52:10.961Z,85.49
2022-10-27T01:54:24.086Z,85.71
2022-10-27T01:56:52.701Z,85.58
2022-10-27T01:59:22.146Z,85.59
2022-10-27T02:01:44.712Z,85.53
2022-10-27T02:04:00.958Z,85.67
2022-10-27T02:06:19.918Z,85.65
2022-10-27T02:08:37.442Z,85.72
2022-10-27T02:10:53.647Z,85.87
2022-10-27T02:13:05.909Z,86.03
2022-10-27T02:15:25.328Z,85.90
2022-10-27T02:17:40.437Z,85.81
2022-10-27T02:19:54.389Z,85.83
2022-10-27T02:22:07.400Z,85.84
2022-10-27T02:24:17.711Z,85.72
2022-10-27T02:26:33.827Z,85.57
2022-10-27T02:28:47.205Z,85.65
2022-10-27T02:31:00.463Z,85.73
2022-10-27T02:33:11.920Z,85.92
2022-10-27T02:35:22.505Z,85.84
2022-10-27T02:37:36.604Z,85.86
2022-10-27T02:39:47.485Z,85.82
2022-10-27T02:41:57.723Z,85.66
2022-10-27T02:44:08.091Z,85.63
2022-10-27T02:46:19.155Z,85.51
2022-10-27T02:48:29.070Z,85.56
2022-10-27T02:52:49.242Z,85.71
2022-10-27T02:54:59.439Z,85.79
2022-10-27T02:57:09.630Z,85.70
2022-10-27T02:59:19.959Z,85.69
2022-10-27T03:01:30.487Z,85.76
2022-10-27T03:03:40.627Z,85.86
2022-10-27T03:05:50.869Z,85.92
2022-10-27T03:08:01.210Z,85.80
2022-10-27T03:12:23.725Z,85.92
2022-10-27T03:14:33.578Z,85.73
2022-10-27T03:16:43.827Z,85.66
2022-10-27T03:18:54.291Z,85.62
2022-10-27T03:21:04.300Z,85.55
2022-10-27T03:23:14.485Z,85.57
2022-10-27T03:25:24.687Z,85.84
2022-10-27T03:27:35.874Z,85.88
2022-10-27T03:31:56.798Z,86.07
2022-10-27T03:34:06.894Z,86.07
2022-10-27T03:36:17.101Z,86.03
2022-10-27T03:38:27.443Z,86.13
2022-10-27T03:40:37.853Z,86.27
2022-10-27T03:42:48.206Z,86.45
2022-10-27T03:44:58.851Z,86.40
2022-10-27T03:47:08.923Z,86.52
2022-10-27T03:49:19.423Z,86.78
2022-10-27T03:51:29.674Z,86.85
2022-10-27T03:53:40.833Z,87.15
2022-10-27T03:55:51.775Z,87.22
2022-10-27T03:58:02.097Z,87.29
2022-10-27T04:00:17.500Z,87.23
2022-10-27T04:02:27.716Z,87.34
2022-10-27T04:04:37.739Z,87.32
2022-10-27T04:06:47.861Z,87.14
2022-10-27T04:08:57.951Z,87.14
2022-10-27T04:11:08.705Z,87.16
2022-10-27T04:13:18.799Z,87.24
2022-10-27T04:15:29.953Z,87.13
2022-10-27T04:17:40.082Z,87.30
2022-10-27T04:19:50.153Z,87.42
2022-10-27T04:22:00.885Z,87.49
2022-10-27T04:24:11.802Z,87.35
2022-10-27T04:26:21.754Z,87.44
2022-10-27T04:28:31.962Z,87.44
2022-10-27T04:30:42.251Z,87.43
2022-10-27T04:32:56.167Z,87.56
2022-10-27T04:35:06.350Z,87.69
2022-10-27T04:37:16.478Z,87.57
2022-10-27T04:39:26.717Z,87.62
2022-10-27T04:41:37.111Z,87.57
2022-10-27T04:46:05.639Z,87.51
2022-10-27T04:48:15.823Z,87.55
2022-10-27T04:50:26.111Z,87.60
2022-10-27T04:52:38.298Z,87.59
2022-10-27T04:54:50.860Z,87.68
2022-10-27T04:57:00.846Z,87.83
2022-10-27T04:59:11.501Z,87.76
2022-10-27T05:01:21.779Z,87.75
2022-10-27T05:03:31.969Z,87.91
2022-10-27T05:05:42.077Z,88.04
2022-10-27T05:07:57.854Z,88.08
2022-10-27T05:10:08.862Z,88.14
2022-10-27T05:12:18.842Z,88.13
2022-10-27T05:14:29.086Z,88.26
2022-10-27T05:16:39.310Z,88.26
2022-10-27T05:18:49.423Z,88.44
2022-10-27T05:20:59.703Z,88.50
2022-10-27T05:23:10.290Z,88.53
2022-10-27T05:25:21.008Z,88.66
2022-10-27T05:27:31.097Z,88.79
2022-10-27T05:29:41.041Z,88.91
2022-10-27T05:31:51.084Z,88.90
2022-10-27T05:34:01.212Z,89.00
2022-10-27T05:36:12.282Z,89.12
2022-10-27T05:38:22.321Z,89.08
2022-10-27T05:40:34.856Z,89.11
2022-10-27T05:42:42.737Z,89.22
2022-10-27T05:44:52.905Z,89.27
2022-10-27T05:47:02.706Z,89.31
2022-10-27T05:49:12.956Z,89.29
2022-10-27T05:51:23.201Z,89.28
2022-10-27T05:53:33.778Z,89.24
2022-10-27T05:55:43.841Z,89.25
2022-10-27T05:58:04.266Z,89.33
2022-10-27T06:00:17.627Z,89.28
2022-10-27T06:02:30.329Z,89.38
2022-10-27T06:04:40.550Z,89.34
2022-10-27T06:06:50.677Z,89.29
2022-10-27T06:09:00.748Z,89.28
2022-10-27T06:11:11.167Z,89.25
2022-10-27T06:13:21.309Z,89.12
2022-10-27T06:15:31.977Z,89.17
2022-10-27T06:17:42.222Z,89.01
2022-10-27T06:19:52.235Z,89.00
2022-10-27T06:22:02.478Z,89.06
2022-10-27T06:24:14.483Z,88.97
2022-10-27T06:26:24.670Z,88.94
2022-10-27T06:28:34.620Z,88.96
2022-10-27T06:30:45.599Z,88.99
2022-10-27T06:32:57.102Z,89.00
2022-10-27T06:35:09.003Z,88.91
2022-10-27T06:37:19.544Z,88.98
2022-10-27T06:39:30.560Z,88.93
2022-10-27T06:41:41.162Z,89.04
2022-10-27T06:43:51.517Z,89.03
2022-10-27T06:46:02.084Z,88.86
2022-10-27T06:48:14.331Z,88.92
2022-10-27T06:50:26.979Z,88.94
2022-10-27T06:52:40.029Z,88.90
2022-10-27T06:54:54.317Z,88.86
2022-10-27T06:57:06.873Z,88.88
2022-10-27T06:59:18.097Z,88.81
2022-10-27T07:01:28.321Z,88.70
2022-10-27T07:03:38.515Z,88.77
2022-10-27T07:05:49.062Z,88.71
2022-10-27T07:07:59.418Z,88.61
2022-10-27T07:10:11.139Z,88.61
2022-10-27T07:12:21.105Z,88.46
2022-10-27T07:14:31.137Z,88.52
2022-10-27T07:16:41.398Z,88.50
2022-10-27T07:18:52.253Z,88.52
2022-10-27T07:21:02.169Z,88.48
2022-10-27T07:23:13.675Z,88.41
2022-10-27T07:25:24.018Z,88.40
2022-10-27T07:27:34.080Z,88.32
2022-10-27T07:29:45.008Z,88.29
2022-10-27T07:31:55.650Z,88.20
2022-10-27T07:34:07.031Z,88.19
2022-10-27T07:36:17.195Z,88.19
2022-10-27T07:38:27.190Z,88.11
2022-10-27T07:40:37.506Z,88.03
2022-10-27T07:42:49.423Z,88.07
2022-10-27T07:44:59.933Z,87.96
2022-10-27T07:47:09.877Z,88.01
2022-10-27T07:49:21.025Z,87.98
2022-10-27T07:51:31.980Z,88.03
2022-10-27T07:53:42.437Z,87.89
2022-10-27T07:55:54.122Z,87.82
2022-10-27T07:58:06.544Z,87.69
2022-10-27T08:00:16.207Z,87.48
2022-10-27T08:02:26.594Z,87.62
2022-10-27T08:04:36.877Z,87.67
2022-10-27T08:06:46.932Z,87.71
2022-10-27T08:08:57.402Z,87.59
2022-10-27T08:11:07.752Z,87.55
2022-10-27T08:13:19.135Z,87.47
2022-10-27T08:15:30.162Z,87.33
2022-10-27T08:17:40.097Z,87.34
2022-10-27T08:19:50.398Z,87.23
2022-10-27T08:22:01.163Z,87.23
2022-10-27T08:24:12.188Z,87.18
2022-10-27T08:26:22.229Z,87.15
2022-10-27T08:28:32.337Z,87.12
2022-10-27T08:30:50.683Z,87.06
2022-10-27T08:33:04.983Z,87.19
2022-10-27T08:35:15.608Z,87.22
2022-10-27T08:37:25.955Z,87.13
2022-10-27T08:39:36.100Z,87.00
2022-10-27T08:41:53.556Z,87.03
2022-10-27T08:44:26.814Z,87.03
2022-10-27T08:46:44.387Z,86.98
2022-10-27T08:49:00.511Z,87.00
2022-10-27T08:51:16.377Z,87.13
2022-10-27T08:53:32.871Z,87.01
2022-10-27T08:55:55.148Z,86.97
2022-10-27T08:58:09.582Z,86.91
2022-10-27T09:00:20.324Z,86.99
2022-10-27T09:03:06.333Z,87.02
2022-10-27T09:05:43.983Z,87.10
2022-10-27T09:08:01.438Z,87.26
2022-10-27T09:10:22.160Z,87.33
2022-10-27T09:13:01.499Z,87.30
2022-10-27T09:15:41.564Z,87.38
2022-10-27T09:17:57.910Z,87.61
2022-10-27T09:20:16.502Z,87.72
2022-10-27T09:22:28.209Z,87.81
2022-10-27T09:24:41.945Z,87.73
2022-10-27T09:26:52.576Z,87.72
2022-10-27T09:29:06.344Z,87.73
2022-10-27T09:31:20.357Z,87.74
2022-10-27T09:33:34.503Z,87.71
2022-10-27T09:35:44.545Z,87.68
2022-10-27T09:37:57.053Z,87.75
2022-10-27T09:40:13.179Z,87.74
2022-10-27T09:42:23.729Z,87.88
2022-10-27T09:44:35.029Z,87.88
2022-10-27T09:46:46.942Z,87.85
2022-10-27T09:49:05.600Z,87.79
2022-10-27T09:51:22.672Z,87.92
2022-10-27T09:53:44.313Z,87.84
2022-10-27T09:55:55.954Z,87.79
2022-10-27T09:58:06.566Z,87.82
2022-10-27T10:00:31.602Z,87.83
2022-10-27T10:02:47.252Z,87.81
2022-10-27T10:04:59.498Z,87.78
2022-10-27T10:07:30.204Z,87.77
2022-10-27T10:09:41.411Z,87.84
2022-10-27T10:11:51.855Z,87.85
2022-10-27T10:14:04.483Z,87.93
2022-10-27T10:16:18.240Z,88.03
2022-10-27T10:18:31.606Z,88.03
2022-10-27T10:20:44.865Z,88.09
2022-10-27T10:22:56.346Z,88.12
2022-10-27T10:25:17.685Z,88.06
2022-10-27T10:27:33.205Z,88.07
2022-10-27T10:29:51.569Z,88.03
2022-10-27T10:32:20.742Z,88.12
2022-10-27T10:34:36.182Z,88.21
2022-10-27T10:36:50.728Z,88.25
2022-10-27T10:39:02.497Z,88.24
2022-10-27T10:41:17.299Z,88.27
2022-10-27T10:43:27.333Z,88.26
2022-10-27T10:45:41.084Z,88.23
2022-10-27T10:47:56.446Z,88.25
2022-10-27T10:50:13.603Z,88.26
2022-10-27T10:52:27.091Z,88.18
2022-10-27T10:54:40.334Z,88.19
2022-10-27T10:56:57.387Z,88.19
2022-10-27T10:59:15.740Z,88.13
2022-10-27T11:01:26.632Z,88.12
2022-10-27T11:03:44.026Z,88.12
2022-10-27T11:06:01.151Z,88.10
2022-10-27T11:08:21.664Z,88.03
2022-10-27T11:10:34.813Z,87.95
2022-10-27T11:12:48.406Z,87.94
2022-10-27T11:15:00.734Z,87.91
2022-10-27T11:17:11.387Z,87.90
2022-10-27T11:19:25.292Z,87.82
2022-10-27T11:21:40.844Z,87.76
2022-10-27T11:23:52.855Z,87.77
2022-10-27T11:26:05.139Z,87.70
2022-10-27T11:28:24.987Z,87.63
2022-10-27T11:30:38.793Z,87.58
2022-10-27T11:32:54.620Z,87.54
2022-10-27T11:35:13.801Z,87.48
2022-10-27T11:37:30.973Z,87.34
2022-10-27T11:39:50.788Z,87.25
2022-10-27T11:42:11.775Z,87.08
2022-10-27T11:44:34.732Z,86.98
2022-10-27T11:49:10.644Z,86.92
2022-10-27T11:51:26.596Z,87.01
2022-10-27T11:53:40.230Z,86.71
2022-10-27T11:56:10.258Z,86.84
2022-10-27T11:58:28.079Z,86.65
2022-10-27T12:00:47.016Z,86.73
2022-10-27T12:03:15.996Z,86.69
2022-10-27T12:05:31.750Z,86.71
2022-10-27T12:08:06.122Z,86.74
2022-10-27T12:10:27.611Z,86.67
2022-10-27T12:12:41.102Z,86.65
2022-10-27T12:14:57.685Z,86.76
2022-10-27T12:17:13.696Z,86.65
2022-10-27T12:19:30.253Z,86.62
2022-10-27T12:21:45.486Z,86.64
2022-10-27T12:24:03.108Z,86.60
2022-10-27T12:26:19.759Z,86.60
2022-10-27T12:28:31.232Z,86.63
2022-10-27T12:30:44.641Z,86.56
2022-10-27T12:33:00.777Z,86.64
2022-10-27T12:35:20.398Z,86.53
2022-10-27T12:37:41.104Z,86.56
2022-10-27T12:39:57.832Z,86.40
2022-10-27T12:42:17.997Z,86.26
2022-10-27T12:44:39.860Z,86.30
2022-10-27T12:47:05.450Z,86.37
2022-10-27T12:49:27.357Z,86.36
2022-10-27T12:51:48.408Z,86.25
2022-10-27T12:54:04.350Z,86.28
2022-10-27T12:56:27.071Z,86.26
2022-10-27T12:58:47.422Z,86.41
2022-10-27T13:01:08.271Z,86.57
2022-10-27T13:03:35.480Z,86.66
2022-10-27T13:06:09.310Z,86.62
2022-10-27T13:09:08.975Z,86.69
2022-10-27T13:11:37.515Z,86.71
2022-10-27T13:14:04.340Z,86.37
2022-10-27T13:16:24.977Z,86.30
2022-10-27T13:18:58.898Z,86.25
2022-10-27T13:21:17.130Z,86.17
2022-10-27T13:23:33.288Z,86.26
2022-10-27T13:25:48.311Z,86.21
2022-10-27T13:28:06.843Z,86.27
2022-10-27T13:30:23.503Z,86.12
2022-10-27T13:32:56.416Z,86.13
2022-10-27T13:35:33.207Z,86.05
2022-10-27T13:37:45.345Z,86.00
2022-10-27T13:39:55.559Z,85.87
2022-10-27T13:42:30.229Z,85.64
2022-10-27T13:44:41.603Z,85.48
2022-10-27T13:47:17.413Z,85.42
2022-10-27T13:49:57.881Z,85.49
2022-10-27T13:52:24.827Z,85.38
2022-10-27T13:54:55.671Z,85.21
2022-10-27T13:57:26.528Z,85.27
2022-10-27T13:59:39.316Z,85.15
2022-10-27T14:01:53.417Z,85.11
2022-10-27T14:04:25.320Z,85.00
2022-10-27T14:06:38.931Z,84.96
2022-10-27T14:08:54.851Z,84.84
2022-10-27T14:11:12.181Z,84.85
2022-10-27T14:13:26.445Z,84.72
2022-10-27T14:15:38.394Z,84.84
2022-10-27T14:17:49.816Z,84.75
2022-10-27T14:20:03.886Z,84.67
2022-10-27T14:22:30.957Z,84.58
2022-10-27T14:24:51.292Z,84.52
2022-10-27T14:27:06.062Z,84.38
2022-10-27T14:29:28.051Z,84.09
2022-10-27T14:31:38.589Z,84.03
2022-10-27T14:33:48.752Z,83.87
2022-10-27T14:36:17.933Z,83.74
2022-10-27T14:38:28.296Z,83.69
2022-10-27T14:40:43.481Z,83.64
2022-10-27T14:42:54.231Z,83.21
2022-10-27T14:45:07.450Z,83.00
2022-10-27T14:47:19.524Z,83.14
2022-10-27T14:49:35.091Z,82.68
2022-10-27T14:51:48.209Z,82.42
2022-10-27T14:53:59.594Z,82.08
2022-10-27T14:56:20.807Z,82.16
2022-10-27T14:58:31.012Z,82.34
2022-10-27T15:00:41.511Z,82.12
2022-10-27T15:02:52.379Z,81.95
2022-10-27T15:07:39.931Z,81.85
2022-10-27T15:09:55.019Z,81.68
2022-10-27T15:12:10.673Z,81.68
2022-10-27T15:14:24.160Z,81.70
2022-10-27T15:16:38.927Z,81.62
2022-10-27T15:18:52.851Z,81.47
2022-10-27T15:21:06.978Z,81.51
2022-10-27T15:23:21.318Z,81.50
2022-10-27T15:25:36.356Z,81.43
2022-10-27T15:27:50.340Z,81.22
2022-10-27T15:30:04.513Z,81.19
2022-10-27T15:32:30.678Z,81.16
2022-10-27T15:34:44.411Z,81.27
2022-10-27T15:37:16.340Z,81.28
2022-10-27T15:39:29.560Z,81.24
2022-10-27T15:41:50.184Z,80.89
2022-10-27T15:44:21.041Z,81.00
2022-10-27T15:46:39.619Z,80.85
2022-10-27T15:48:58.818Z,80.86
2022-10-27T15:51:15.805Z,80.87
2022-10-27T15:53:31.853Z,80.72
2022-10-27T15:55:47.067Z,80.65
2022-10-27T15:58:00.263Z,80.27
2022-10-27T16:00:26.404Z,80.31
2022-10-27T16:02:47.167Z,79.70
2022-10-27T16:05:01.521Z,79.79
2022-10-27T16:07:36.878Z,79.60
2022-10-27T16:09:51.972Z,79.49
2022-10-27T16:12:05.297Z,79.47
2022-10-27T16:14:21.666Z,79.39
2022-10-27T16:16:37.469Z,79.10
2022-10-27T16:18:50.975Z,77.91
2022-10-27T16:21:04.400Z,78.43
2022-10-27T16:23:19.437Z,78.68
2022-10-27T16:25:35.537Z,78.21
2022-10-27T16:27:49.224Z,78.38
2022-10-27T16:30:04.666Z,78.18
2022-10-27T16:32:19.159Z,77.72
2022-10-27T16:34:34.391Z,77.59
2022-10-27T16:36:47.807Z,77.45
2022-10-27T16:39:01.934Z,77.28
2022-10-27T16:41:19.557Z,77.27
2022-10-27T16:43:37.955Z,76.80
2022-10-27T16:45:51.350Z,75.73
2022-10-27T16:48:04.687Z,75.96
2022-10-27T16:50:18.780Z,76.15
2022-10-27T16:52:32.035Z,76.23
2022-10-27T16:54:46.944Z,76.38
2022-10-27T16:57:00.327Z,76.29
2022-10-27T16:59:14.788Z,76.20
2022-10-27T17:01:28.660Z,76.23
2022-10-27T17:03:42.729Z,76.20
2022-10-27T17:05:56.970Z,76.26
2022-10-27T17:08:11.105Z,76.35
2022-10-27T17:10:24.727Z,76.08
2022-10-27T17:12:38.149Z,75.82
2022-10-27T17:14:55.142Z,75.74
2022-10-27T17:17:08.416Z,74.98
2022-10-27T17:19:21.691Z,75.23
2022-10-27T17:21:36.454Z,74.72
2022-10-27T17:23:49.864Z,74.96
2022-10-27T17:26:09.306Z,74.73
2022-10-27T17:28:22.830Z,74.92
2022-10-27T17:30:36.562Z,74.95
2022-10-27T17:32:50.097Z,74.85
2022-10-27T17:35:04.346Z,74.73
2022-10-27T17:37:19.529Z,74.19
2022-10-27T17:39:33.100Z,73.87
2022-10-27T17:41:46.457Z,74.31
2022-10-27T17:44:00.698Z,74.94
2022-10-27T17:46:15.924Z,74.78
2022-10-27T17:48:30.089Z,75.04
2022-10-27T17:50:43.281Z,74.14
2022-10-27T17:52:56.472Z,74.26
2022-10-27T17:55:11.546Z,74.19
2022-10-27T17:57:25.728Z,74.12
2022-10-27T17:59:38.945Z,74.22
2022-10-27T18:01:52.286Z,74.35
2022-10-27T18:04:09.998Z,73.20
2022-10-27T18:06:24.630Z,73.47
2022-10-27T18:08:37.926Z,73.19
2022-10-27T18:10:52.203Z,73.18
2022-10-27T18:13:06.755Z,73.52
2022-10-27T18:15:36.315Z,73.54
2022-10-27T18:17:52.245Z,72.78
2022-10-27T18:20:05.374Z,73.03
2022-10-27T18:22:18.563Z,73.19
2022-10-27T18:24:31.819Z,73.16
2022-10-27T18:26:46.972Z,73.00
2022-10-27T18:29:00.424Z,72.93
2022-10-27T18:31:17.091Z,72.92
2022-10-27T18:33:30.573Z,72.71
2022-10-27T18:35:44.864Z,72.29
2022-10-27T18:37:58.498Z,72.05
2022-10-27T18:40:14.731Z,71.81
2022-10-27T18:42:27.911Z,71.82
2022-10-27T18:44:41.114Z,72.09
2022-10-27T18:46:54.913Z,71.12
2022-10-27T18:49:15.620Z,70.79
2022-10-27T18:51:35.493Z,70.81
2022-10-27T18:53:49.456Z,70.94
2022-10-27T18:56:03.374Z,71.49
2022-10-27T18:58:17.059Z,71.46
2022-10-27T19:00:30.515Z,70.53
2022-10-27T19:02:43.966Z,70.92
2022-10-27T19:04:57.799Z,70.96
2022-10-27T19:07:11.644Z,71.21
2022-10-27T19:09:25.142Z,71.45
2022-10-27T19:11:40.819Z,71.44
2022-10-27T19:13:55.094Z,71.32
2022-10-27T19:16:09.370Z,71.59
2022-10-27T19:18:22.610Z,71.38
2022-10-27T19:20:36.115Z,70.55
2022-10-27T19:22:49.368Z,70.79
2022-10-27T19:25:03.607Z,69.12
2022-10-27T19:27:16.919Z,69.37
2022-10-27T19:29:30.052Z,69.53
2022-10-27T19:31:43.588Z,69.89
2022-10-27T19:33:57.364Z,69.65
2022-10-27T19:36:15.494Z,69.68
2022-10-27T19:38:28.808Z,69.01
2022-10-27T19:40:44.190Z,68.62
2022-10-27T19:42:57.449Z,68.39
2022-10-27T19:45:12.140Z,68.52
2022-10-27T19:49:44.465Z,68.25
2022-10-27T19:51:58.900Z,68.01
2022-10-27T19:54:15.830Z,67.94
2022-10-27T19:56:32.941Z,67.72
2022-10-27T19:58:47.554Z,66.86
2022-10-27T20:01:00.802Z,67.24
2022-10-27T20:03:14.028Z,66.25
2022-10-27T20:05:28.130Z,66.08
2022-10-27T20:07:41.603Z,65.88
2022-10-27T20:09:55.728Z,66.42
2022-10-27T20:12:09.059Z,65.49
2022-10-27T20:14:24.517Z,65.81
2022-10-27T20:16:41.894Z,65.98
2022-10-27T20:18:55.488Z,65.30
2022-10-27T20:21:10.677Z,65.88
2022-10-27T20:23:26.046Z,65.49
2022-10-27T20:25:40.380Z,64.89
2022-10-27T20:27:54.519Z,65.54
2022-10-27T20:30:08.336Z,65.13
2022-10-27T20:32:21.713Z,64.72
2022-10-27T20:34:39.412Z,64.63
2022-10-27T20:36:52.913Z,64.42
2022-10-27T20:39:07.255Z,64.76
2022-10-27T20:41:24.130Z,65.03
2022-10-27T20:43:38.720Z,64.55
2022-10-27T20:45:58.810Z,63.53
2022-10-27T20:48:13.081Z,63.42
2022-10-27T20:50:26.508Z,62.82
2022-10-27T20:54:58.927Z,62.21
2022-10-27T20:57:12.306Z,61.63
2022-10-27T20:59:26.706Z,62.51
2022-10-27T21:01:42.112Z,62.80
2022-10-27T21:03:57.099Z,62.94
2022-10-27T21:06:12.610Z,62.66
2022-10-27T21:08:26.307Z,62.95
2022-10-27T21:10:42.991Z,62.85
2022-10-27T21:12:56.262Z,62.78
2022-10-27T21:15:11.158Z,62.69
2022-10-27T21:17:25.024Z,63.45
2022-10-27T21:19:38.538Z,63.89
2022-10-27T21:21:51.958Z,62.94
2022-10-27T21:24:10.963Z,63.49
2022-10-27T21:26:28.177Z,63.71
2022-10-27T21:28:41.587Z,63.94
2022-10-27T21:30:55.170Z,63.80
2022-10-27T21:33:08.651Z,64.24
2022-10-27T21:35:22.317Z,64.26
2022-10-27T21:37:36.656Z,63.82
2022-10-27T21:39:50.003Z,64.33
2022-10-27T21:42:03.098Z,63.71
2022-10-27T21:44:17.249Z,62.69
2022-10-27T21:46:32.064Z,62.45
2022-10-27T21:48:45.316Z,61.88
2022-10-27T21:50:59.654Z,62.35
2022-10-27T21:53:12.869Z,61.91
2022-10-27T21:55:26.031Z,61.53
2022-10-27T21:57:39.148Z,61.76
2022-10-27T21:59:52.385Z,61.40
2022-10-27T22:02:05.620Z,60.28
2022-10-27T22:04:18.750Z,60.10
2022-10-27T22:06:34.930Z,59.49
2022-10-27T22:08:49.147Z,59.60
2022-10-27T22:11:09.686Z,60.67
2022-10-27T22:13:23.547Z,61.28
2022-10-27T22:15:37.066Z,61.62
2022-10-27T22:17:51.193Z,61.69
2022-10-27T22:20:04.766Z,62.09
2022-10-27T22:22:18.302Z,62.76
2022-10-27T22:24:31.648Z,62.98
2022-10-27T22:26:47.864Z,63.24
2022-10-27T22:29:02.505Z,63.39
2022-10-27T22:31:18.377Z,63.64
2022-10-27T22:33:32.629Z,63.88
2022-10-27T22:35:45.951Z,63.89
2022-10-27T22:37:59.363Z,63.51
2022-10-27T22:40:17.576Z,62.69
2022-10-27T22:42:30.820Z,63.05
2022-10-27T22:44:44.341Z,62.42
2022-10-27T22:46:57.575Z,62.56
2022-10-27T22:49:11.945Z,62.94
2022-10-27T22:51:26.997Z,62.85
2022-10-27T22:53:43.685Z,63.01
2022-10-27T22:55:57.779Z,62.92
2022-10-27T22:58:12.046Z,63.17
2022-10-27T23:00:25.614Z,62.95
2022-10-27T23:02:38.883Z,62.65
2022-10-27T23:04:52.066Z,62.59
2022-10-27T23:07:05.254Z,62.72
2022-10-27T23:09:21.041Z,62.82
2022-10-27T23:11:39.360Z,62.58
2022-10-27T23:13:52.525Z,62.72
2022-10-27T23:16:11.301Z,62.65
2022-10-27T23:18:24.691Z,62.74
2022-10-27T23:20:37.895Z,62.69
2022-10-27T23:22:51.405Z,63.04
2022-10-27T23:25:04.813Z,63.24
2022-10-27T23:27:18.109Z,62.91
2022-10-27T23:29:31.306Z,63.22
2022-10-27T23:31:44.814Z,63.50
2022-10-27T23:34:01.018Z,63.53
2022-10-27T23:36:17.259Z,63.62
2022-10-27T23:38:31.316Z,63.99
2022-10-27T23:40:52.367Z,64.26
2022-10-27T23:43:06.551Z,64.69
2022-10-27T23:45:19.954Z,64.85
2022-10-27T23:47:34.152Z,65.07
2022-10-27T23:49:47.308Z,65.12
2022-10-27T23:52:00.547Z,65.22
2022-10-27T23:54:14.289Z,65.16
2022-10-27T23:56:27.716Z,65.03
2022-10-27T23:58:42.428Z,64.84
